Time;durP1;ratioP1;P1;durP2;ratioP2;P2;SDS_P1;SDS_P2;PMS_P1;PMS_P2;Temp;Humidity;BMP_temperature;BMP_pressure;BME280_temperature;BME280_humidity;BME280_pressure;Samples;Min_cycle;Max_cycle;Signal;HPM_P1;HPM_P2
2021/12/05 00:18:20;;;;;;;2.42;1.10;;;16.00;67.30;;;;;;10558424;28;20031;-56
2021/12/05 00:23:17;;;;;;;2.25;1.20;;;16.00;67.90;;;;;;10586720;28;20028;-55
2021/12/05 00:39:12;;;;;;;;;;;15.90;67.20;;;;;;10571771;28;20040;-55
2021/12/05 00:44:54;;;;;;;3.75;0.82;;;15.90;67.30;;;;;;10585810;28;19919;-55
2021/12/05 00:50:11;;;;;;;2.28;1.10;;;15.90;67.30;;;;;;10572860;28;20040;-56
2021/12/05 01:16:12;;;;;;;1.90;0.85;;;15.80;67.20;;;;;;10583815;28;20028;-56
2021/12/05 01:21:17;;;;;;;2.38;0.98;;;15.80;67.20;;;;;;10566125;28;20415;-56
2021/12/05 01:26:24;;;;;;;2.38;0.90;;;15.80;67.10;;;;;;10584415;28;20032;-56
2021/12/05 02:03:10;;;;;;;1.30;0.70;;;15.70;66.90;;;;;;10583091;28;20074;-55
2021/12/05 02:40:19;;;;;;;5.28;0.90;;;15.80;66.60;;;;;;10581859;28;20027;-56
2021/12/05 02:45:17;;;;;;;1.50;0.75;;;15.80;66.50;;;;;;10554383;28;20047;-56
2021/12/05 02:50:24;;;;;;;2.28;1.00;;;15.80;66.40;;;;;;10580508;28;20063;-56
2021/12/05 02:55:37;;;;;;;1.60;0.90;;;15.80;66.30;;;;;;10562651;28;20042;-56
2021/12/05 03:00:46;;;;;;;1.80;0.90;;;15.80;66.20;;;;;;10564166;28;20383;-56
2021/12/05 03:06:16;;;;;;;2.40;1.00;;;15.80;66.10;;;;;;10580613;28;20043;-56
2021/12/05 03:11:18;;;;;;;1.48;1.02;;;15.80;66.10;;;;;;10580438;28;20326;-56
2021/12/05 03:16:23;;;;;;;3.00;1.20;;;15.90;65.80;;;;;;10561869;28;20075;-56
2021/12/05 03:21:24;;;;;;;2.70;1.08;;;15.90;65.70;;;;;;10577419;28;20063;-56
2021/12/05 03:26:31;;;;;;;1.90;0.90;;;15.90;65.70;;;;;;10580064;28;20063;-56
2021/12/05 03:31:34;;;;;;;2.22;0.98;;;15.90;65.70;;;;;;10562093;28;20051;-56
2021/12/05 03:36:37;;;;;;;2.28;0.90;;;15.80;65.80;;;;;;10579445;28;20066;-56
2021/12/05 03:41:42;;;;;;;3.10;1.05;;;15.80;65.80;;;;;;10561156;28;20118;-55
2021/12/05 03:46:43;;;;;;;2.10;1.42;;;15.80;65.70;;;;;;10544597;28;20039;-56
2021/12/05 03:51:53;;;;;;;1.40;0.93;;;15.90;65.50;;;;;;10579158;28;20032;-55
2021/12/05 03:56:54;;;;;;;2.05;0.95;;;15.90;65.40;;;;;;10579387;28;20108;-55
2021/12/05 04:01:57;;;;;;;1.80;1.00;;;15.90;65.40;;;;;;10579141;28;20418;-55
2021/12/05 04:06:59;;;;;;;1.92;1.00;;;15.90;65.40;;;;;;10578833;28;20051;-55
2021/12/05 04:12:02;;;;;;;1.70;0.85;;;15.80;65.50;;;;;;10560803;28;20030;-56
2021/12/05 04:17:07;;;;;;;1.27;0.70;;;15.80;65.50;;;;;;10569789;28;20036;-55
2021/12/05 04:22:09;;;;;;;2.45;1.08;;;15.90;65.40;;;;;;10560704;28;20584;-56
2021/12/05 04:27:10;;;;;;;2.42;1.02;;;15.90;65.80;;;;;;10578060;28;20031;-56
2021/12/05 04:32:11;;;;;;;2.15;1.10;;;16.00;65.00;;;;;;10578332;28;20020;-55
2021/12/05 04:37:11;;;;;;;3.05;1.02;;;16.00;65.00;;;;;;10559648;28;20450;-56
2021/12/05 04:42:15;;;;;;;1.63;1.00;;;16.00;65.00;;;;;;10560170;28;20459;-56
2021/12/05 04:47:15;;;;;;;1.63;0.95;;;15.90;65.00;;;;;;10559906;28;20035;-55
2021/12/05 04:52:16;;;;;;;2.08;1.10;;;15.90;65.10;;;;;;10585518;28;20059;-55
2021/12/05 04:57:17;;;;;;;2.10;0.90;;;16.00;65.00;;;;;;10567342;28;20038;-55
2021/12/05 05:02:19;;;;;;;2.60;1.00;;;16.00;65.00;;;;;;10584732;28;20474;-56
2021/12/05 05:07:27;;;;;;;1.48;0.80;;;15.90;65.00;;;;;;10585098;28;20031;-56
2021/12/05 05:12:28;;;;;;;2.22;1.08;;;15.90;65.00;;;;;;10563933;28;20028;-56
2021/12/05 05:17:29;;;;;;;2.78;1.30;;;15.90;65.00;;;;;;10548854;28;20065;-56
2021/12/05 05:23:21;;;;;;;2.80;0.93;;;15.90;64.80;;;;;;10584460;28;20030;-56
2021/12/05 05:28:25;;;;;;;2.42;1.02;;;15.90;65.00;;;;;;10568930;28;20047;-55
2021/12/05 05:49:22;;;;;;;1.77;0.73;;;16.20;64.20;;;;;;10563270;28;20043;-56
2021/12/05 05:54:22;;;;;;;2.33;1.13;;;16.40;63.70;;;;;;10575058;28;20032;-55
2021/12/05 06:00:10;;;;;;;1.38;0.80;;;16.50;63.30;;;;;;10553943;28;20098;-56
2021/12/05 06:04:47;;;;;;;1.75;0.77;;;16.70;63.00;;;;;;10561365;28;20036;-56
2021/12/05 06:09:48;;;;;;;1.75;0.88;;;16.80;62.70;;;;;;10579843;28;20375;-54
2021/12/05 06:14:49;;;;;;;3.15;1.58;;;16.70;63.00;;;;;;10569523;28;20020;-54
2021/12/05 06:19:51;;;;;;;4.97;2.00;;;16.80;63.10;;;;;;10563893;28;20122;-54
2021/12/05 06:24:52;;;;;;;5.03;1.13;;;16.90;63.70;;;;;;10563221;28;20031;-54
2021/12/05 06:30:07;;;;;;;3.28;1.20;;;16.90;63.80;;;;;;10564217;28;20490;-54
2021/12/05 06:50:56;;;;;;;3.83;1.25;;;17.30;65.40;;;;;;10580975;28;20459;-51
2021/12/05 06:55:57;;;;;;;5.93;1.52;;;17.40;66.00;;;;;;10562687;28;20039;-52
2021/12/05 07:01:03;;;;;;;7.78;1.75;;;17.30;65.40;;;;;;10556888;28;20038;-55
2021/12/05 07:06:11;;;;;;;4.57;1.20;;;17.40;65.10;;;;;;10580191;28;20451;-53
2021/12/05 07:11:32;;;;;;;5.72;1.30;;;17.40;65.10;;;;;;10574249;28;20023;-53
2021/12/05 07:21:54;;;;;;;6.07;1.58;;;17.30;65.00;;;;;;10576385;28;20032;-55
2021/12/05 07:42:38;;;;;;;6.87;1.30;;;17.60;63.40;;;;;;10563885;28;20048;-54
2021/12/05 07:47:44;;;;;;;10.07;1.70;;;17.60;62.90;;;;;;10551394;28;20036;-55
2021/12/05 07:52:50;;;;;;;6.13;1.50;;;17.60;62.90;;;;;;10574544;28;20126;-55
2021/12/05 07:58:06;;;;;;;3.60;1.42;;;17.80;62.60;;;;;;10574974;28;20028;-55
2021/12/05 08:19:05;;;;;;;4.87;0.90;;;17.70;61.90;;;;;;10547846;28;20047;-55
2021/12/05 08:24:06;;;;;;;4.53;0.65;;;17.80;61.70;;;;;;10563912;28;20421;-55
2021/12/05 08:29:11;;;;;;;2.10;1.17;;;17.80;61.70;;;;;;10552610;28;20055;-55
2021/12/05 08:39:39;;;;;;;7.35;1.05;;;17.80;61.60;;;;;;10566559;28;20099;-55
2021/12/05 09:27:53;;;;;;;2.90;0.90;;;17.90;61.40;;;;;;10584526;28;20091;-54
2021/12/05 10:26:28;;;;;;;17.17;2.05;;;18.10;62.10;;;;;;10580243;28;20375;-55
2021/12/05 10:37:22;;;;;;;11.98;2.90;;;18.00;61.70;;;;;;10581786;28;20032;-53
2021/12/05 10:42:42;;;;;;;11.98;1.92;;;18.10;63.00;;;;;;10570814;28;20027;-54
2021/12/05 10:47:56;;;;;;;14.27;1.50;;;18.30;63.10;;;;;;10564338;28;20094;-53
2021/12/05 10:53:50;;;;;;;11.07;1.55;;;18.30;62.90;;;;;;10580988;28;20030;-50
2021/12/05 10:59:07;;;;;;;12.57;2.00;;;18.40;63.30;;;;;;10393788;28;20049;-54
2021/12/05 11:04:17;;;;;;;14.98;1.63;;;18.40;63.40;;;;;;10559132;28;20475;-54
2021/12/05 11:09:29;;;;;;;;;;;18.30;63.30;;;;;;10580940;28;20190;-54
2021/12/05 11:14:35;;;;;;;9.27;1.85;;;18.30;63.10;;;;;;10569479;28;19915;-54
2021/12/05 11:20:11;;;;;;;9.02;2.10;;;18.30;62.60;;;;;;10579360;28;20072;-55
2021/12/05 11:25:23;;;;;;;6.70;1.58;;;18.30;62.50;;;;;;10560183;28;20036;-54
2021/12/05 11:30:33;;;;;;;8.20;2.08;;;18.30;62.40;;;;;;10560878;28;20040;-51
2021/12/05 11:35:52;;;;;;;8.77;1.80;;;18.20;62.20;;;;;;10559588;28;20028;-52
2021/12/05 11:41:10;;;;;;;4.93;1.20;;;18.30;61.90;;;;;;10567534;28;20038;-53
2021/12/05 11:46:27;;;;;;;6.75;1.02;;;18.30;61.90;;;;;;10577010;28;20043;-53
2021/12/05 11:51:34;;;;;;;3.85;1.35;;;18.30;61.90;;;;;;10577258;28;20031;-53
2021/12/05 11:56:34;;;;;;;10.05;1.73;;;18.30;61.80;;;;;;10579426;28;20406;-53
2021/12/05 12:01:51;;;;;;;6.00;1.65;;;18.40;61.70;;;;;;10587550;28;20039;-53
2021/12/05 12:07:34;;;;;;;7.20;1.13;;;18.30;62.30;;;;;;10587701;28;20027;-54
2021/12/05 12:12:44;;;;;;;5.07;1.73;;;18.30;61.50;;;;;;10573184;28;20067;-52
2021/12/05 12:17:46;;;;;;;;;;;18.30;61.60;;;;;;10569269;28;20054;-53
2021/12/05 12:22:51;;;;;;;4.90;1.05;;;18.40;61.50;;;;;;10568633;28;19918;-56
2021/12/05 12:27:52;;;;;;;5.38;1.00;;;18.30;61.50;;;;;;10568179;28;20028;-53
2021/12/05 12:33:23;;;;;;;6.13;1.10;;;18.40;61.40;;;;;;10568266;28;20066;-53
2021/12/05 12:38:30;;;;;;;2.55;0.93;;;18.40;61.30;;;;;;10564910;28;20544;-52
2021/12/05 12:43:48;;;;;;;5.47;1.10;;;18.40;61.30;;;;;;10572100;28;20031;-53
2021/12/05 12:48:53;;;;;;;1.92;0.77;;;18.40;61.30;;;;;;10586217;28;20023;-53
2021/12/05 12:53:58;;;;;;;4.30;0.80;;;18.40;61.10;;;;;;10567808;28;20387;-53
2021/12/05 12:59:14;;;;;;;3.85;0.80;;;18.40;61.10;;;;;;10585596;28;20128;-52
2021/12/05 13:15:17;;;;;;;2.83;0.60;;;18.40;60.90;;;;;;10584770;28;20039;-53
2021/12/05 13:20:52;;;;;;;1.48;0.80;;;18.40;61.00;;;;;;10584561;28;20103;-53
2021/12/05 13:26:19;;;;;;;1.50;0.50;;;18.50;60.90;;;;;;10553355;28;20119;-52
2021/12/05 13:31:28;;;;;;;4.05;1.17;;;18.40;60.90;;;;;;10584189;28;20169;-52
2021/12/05 13:36:35;;;;;;;5.97;0.90;;;18.50;60.80;;;;;;10584038;28;20031;-53
2021/12/05 13:41:36;;;;;;;2.55;0.50;;;18.40;60.80;;;;;;10548702;28;20027;-54
2021/12/05 13:46:39;;;;;;;1.58;0.50;;;18.50;60.80;;;;;;10565214;28;20491;-53
2021/12/05 13:51:40;;;;;;;2.15;0.80;;;18.40;60.80;;;;;;10583540;28;20066;-53
2021/12/05 13:56:42;;;;;;;2.00;0.98;;;18.50;60.80;;;;;;10582818;28;20066;-51
2021/12/05 14:01:50;;;;;;;4.63;0.60;;;18.50;60.80;;;;;;10561086;28;20020;-52
2021/12/05 14:07:05;;;;;;;3.30;0.55;;;18.50;60.70;;;;;;10564849;28;20455;-52
2021/12/05 14:12:27;;;;;;;1.48;0.52;;;18.50;60.70;;;;;;10563936;28;20047;-51
2021/12/05 14:17:34;;;;;;;0.82;0.40;;;18.50;60.60;;;;;;10580299;28;20070;-56
2021/12/05 14:22:37;;;;;;;1.23;0.50;;;18.40;60.70;;;;;;10582005;28;20448;-50
2021/12/05 14:27:42;;;;;;;1.77;0.55;;;18.50;60.60;;;;;;10563984;28;20102;-53
2021/12/05 14:32:46;;;;;;;1.13;0.55;;;18.50;60.70;;;;;;10581825;28;20032;-53
2021/12/05 14:37:50;;;;;;;3.47;0.57;;;18.50;60.60;;;;;;10581754;28;20042;-53
2021/12/05 14:42:52;;;;;;;1.58;0.57;;;18.50;60.60;;;;;;10544000;28;20604;-53
2021/12/05 14:47:56;;;;;;;12.32;2.45;;;18.50;60.50;;;;;;10536188;28;20048;-54
2021/12/05 14:53:02;;;;;;;14.40;2.65;;;18.50;61.80;;;;;;10536720;28;20028;-55
2021/12/05 14:58:09;;;;;;;20.45;4.07;;;18.60;61.40;;;;;;10535163;28;20030;-56
2021/12/05 15:03:20;;;;;;;35.22;5.10;;;18.70;61.30;;;;;;10533239;28;20130;-56
2021/12/05 15:08:24;;;;;;;29.48;5.55;;;18.80;61.40;;;;;;10548812;28;20024;-54
2021/12/05 15:13:25;;;;;;;31.80;6.82;;;18.70;61.60;;;;;;10535977;28;20020;-55
2021/12/05 15:18:32;;;;;;;36.60;5.93;;;18.80;61.80;;;;;;10537088;28;20038;-56
2021/12/05 15:23:36;;;;;;;23.38;5.72;;;18.80;61.80;;;;;;10516055;28;20062;-54
2021/12/05 15:28:37;;;;;;;31.15;5.57;;;18.80;62.10;;;;;;10536939;28;20421;-54
2021/12/05 15:33:38;;;;;;;33.95;5.82;;;18.70;62.80;;;;;;10537372;28;20031;-53
2021/12/05 15:38:39;;;;;;;25.67;5.97;;;18.80;62.90;;;;;;10536295;28;20035;-53
2021/12/05 15:43:42;;;;;;;28.25;5.97;;;18.70;62.50;;;;;;10503320;28;20486;-53
2021/12/05 15:48:48;;;;;;;22.30;4.63;;;18.80;62.60;;;;;;10578300;28;20096;-54
2021/12/05 15:53:49;;;;;;;31.33;5.50;;;18.70;62.80;;;;;;10573628;28;20032;-53
2021/12/05 15:59:02;;;;;;;26.67;5.43;;;18.80;62.90;;;;;;10576680;28;20495;-55
2021/12/05 16:04:06;;;;;;;40.33;6.43;;;18.80;62.90;;;;;;10560725;28;20028;-53
2021/12/05 16:09:16;;;;;;;21.50;6.03;;;18.70;63.10;;;;;;10553116;28;20491;-52
2021/12/05 16:14:52;;;;;;;25.48;5.20;;;18.70;63.40;;;;;;10556713;28;20038;-53
2021/12/05 16:20:24;;;;;;;29.70;5.45;;;18.80;63.30;;;;;;10519048;28;20043;-49
2021/12/05 16:25:26;;;;;;;24.15;4.88;;;18.70;64.00;;;;;;10556340;28;20081;-54
2021/12/05 16:30:38;;;;;;;22.85;5.25;;;18.80;63.70;;;;;;10557092;28;20540;-53
2021/12/05 16:35:48;;;;;;;16.50;3.35;;;18.80;63.80;;;;;;10577002;28;20078;-52
2021/12/05 16:41:02;;;;;;;13.13;4.95;;;18.80;63.30;;;;;;10563152;28;20051;-52
2021/12/05 16:46:22;;;;;;;24.52;9.18;;;18.70;62.80;;;;;;10581169;28;20124;-53
2021/12/05 16:51:36;;;;;;;14.40;6.65;;;18.60;62.50;;;;;;10565236;28;20602;-51
2021/12/05 16:56:44;;;;;;;17.10;6.80;;;18.60;63.10;;;;;;10581601;28;20042;-54
2021/12/05 17:01:46;;;;;;;18.30;6.27;;;18.60;63.20;;;;;;10580373;28;20016;-53
2021/12/05 17:06:54;;;;;;;16.63;5.78;;;18.70;62.60;;;;;;10565303;28;20030;-56
2021/12/05 17:11:54;;;;;;;18.00;6.53;;;18.70;62.90;;;;;;10565466;28;20018;-54
2021/12/05 17:16:56;;;;;;;15.45;6.22;;;18.80;62.50;;;;;;10565016;28;20387;-52
2021/12/05 17:21:56;;;;;;;10.25;5.40;;;18.80;62.00;;;;;;10565189;28;20391;-53
2021/12/05 17:27:02;;;;;;;11.10;5.25;;;18.70;62.40;;;;;;10578737;28;20398;-54
2021/12/05 17:32:11;;;;;;;21.25;6.13;;;18.70;62.60;;;;;;10582897;28;20027;-54
2021/12/05 17:37:18;;;;;;;;;;;18.70;63.40;;;;;;10582861;28;20028;-53
2021/12/05 17:42:22;;;;;;;12.82;5.80;;;18.80;63.30;;;;;;10566766;28;20384;-53
2021/12/05 17:47:25;;;;;;;14.93;6.30;;;18.90;62.80;;;;;;10560619;28;20075;-54
2021/12/05 17:52:29;;;;;;;16.35;5.93;;;18.90;63.00;;;;;;10580882;28;20036;-55
2021/12/05 17:57:42;;;;;;;11.23;4.15;;;19.00;62.80;;;;;;10583084;28;20039;-55
2021/12/05 18:02:56;;;;;;;13.07;5.60;;;19.00;62.90;;;;;;10564429;28;20028;-52
2021/12/05 18:08:07;;;;;;;13.98;3.72;;;19.00;62.80;;;;;;10564581;28;20065;-55
2021/12/05 18:13:11;;;;;;;11.30;3.95;;;18.90;63.00;;;;;;10564161;28;20052;-55
2021/12/05 18:18:15;;;;;;;9.93;3.60;;;19.00;63.00;;;;;;10562798;28;20031;-55
2021/12/05 18:23:17;;;;;;;8.23;3.13;;;19.00;63.10;;;;;;10562894;28;20499;-55
2021/12/05 18:28:18;;;;;;;9.18;3.70;;;19.00;63.00;;;;;;10562242;28;20059;-54
2021/12/05 18:33:21;;;;;;;8.52;3.35;;;19.00;63.30;;;;;;10581731;28;20341;-54
2021/12/05 18:38:24;;;;;;;9.63;4.60;;;19.00;63.40;;;;;;10563843;28;20028;-48
2021/12/05 18:43:28;;;;;;;9.68;3.78;;;18.90;63.70;;;;;;10549864;28;20024;-55
2021/12/05 18:48:29;;;;;;;14.05;3.70;;;18.90;63.80;;;;;;10561781;28;20032;-56
2021/12/05 18:53:30;;;;;;;7.70;3.45;;;18.80;64.00;;;;;;10579583;28;20027;-54
2021/12/05 18:58:32;;;;;;;8.57;4.38;;;18.90;63.90;;;;;;10556481;28;20429;-54
2021/12/05 19:14:00;;;;;;;9.23;3.47;;;18.90;63.60;;;;;;10569293;28;20027;-56
2021/12/05 19:19:05;;;;;;;11.90;4.75;;;18.90;63.40;;;;;;10566641;28;20032;-56
2021/12/05 19:24:08;;;;;;;6.28;3.10;;;18.90;63.30;;;;;;10543302;28;20024;-56
2021/12/05 19:29:10;;;;;;;6.25;2.92;;;18.90;63.30;;;;;;10552249;28;20036;-56
2021/12/05 19:34:11;;;;;;;6.97;3.53;;;18.90;63.10;;;;;;10534588;28;20460;-55
2021/12/05 19:39:13;;;;;;;8.93;2.72;;;18.90;63.20;;;;;;10546913;28;20531;-55
2021/12/05 19:44:15;;;;;;;8.30;2.45;;;18.90;62.90;;;;;;10526535;28;20552;-56
2021/12/05 19:49:16;;;;;;;7.30;3.10;;;18.90;62.90;;;;;;10546973;28;20036;-55
2021/12/05 19:54:18;;;;;;;15.65;3.17;;;18.90;62.90;;;;;;10527852;28;20483;-55
2021/12/05 19:59:20;;;;;;;10.35;4.68;;;18.80;63.10;;;;;;10555071;28;20078;-56
2021/12/05 20:04:21;;;;;;;9.90;3.75;;;18.90;63.20;;;;;;10553799;28;20021;-52
2021/12/05 20:09:23;;;;;;;5.20;2.70;;;18.90;63.20;;;;;;10546618;28;20458;-55
2021/12/05 20:14:26;;;;;;;6.50;2.85;;;18.70;63.40;;;;;;10565605;28;20020;-55
2021/12/05 20:19:26;;;;;;;6.03;2.40;;;18.60;63.70;;;;;;10581831;28;20424;-54
2021/12/05 20:24:32;;;;;;;7.25;2.80;;;18.50;63.90;;;;;;10568402;28;20032;-54
2021/12/05 20:29:33;;;;;;;15.88;3.55;;;18.30;64.10;;;;;;10567962;28;20028;-58
2021/12/05 20:34:34;;;;;;;7.82;2.60;;;18.20;64.80;;;;;;10567550;28;20036;-57
2021/12/05 20:39:35;;;;;;;6.63;2.63;;;18.10;65.10;;;;;;10579363;28;20099;-58
2021/12/05 20:44:36;;;;;;;4.88;2.70;;;17.90;65.40;;;;;;10586396;28;20055;-57
2021/12/05 20:49:37;;;;;;;6.20;2.92;;;17.90;65.70;;;;;;10568249;28;20038;-55
2021/12/05 20:54:38;;;;;;;4.45;2.38;;;17.70;65.80;;;;;;10567965;28;20123;-59
2021/12/05 20:59:41;;;;;;;9.18;2.95;;;17.60;65.90;;;;;;10559091;28;20360;-58
2021/12/05 21:04:42;;;;;;;5.55;2.40;;;17.60;66.10;;;;;;10537882;28;20032;-58
2021/12/05 21:09:43;;;;;;;8.48;3.22;;;17.50;66.20;;;;;;10567297;28;20024;-57
2021/12/05 21:14:45;;;;;;;4.70;2.35;;;17.40;66.90;;;;;;10567308;28;20054;-57
2021/12/05 21:19:45;;;;;;;4.72;2.95;;;17.40;66.40;;;;;;10584765;28;20043;-57
2021/12/05 21:24:47;;;;;;;5.50;2.85;;;17.30;66.30;;;;;;10585072;28;20035;-57
2021/12/05 21:29:48;;;;;;;5.97;2.60;;;17.30;66.40;;;;;;10565549;28;20024;-58
2021/12/05 21:34:48;;;;;;;3.05;2.08;;;17.20;66.50;;;;;;10566389;28;20092;-57
2021/12/05 21:39:49;;;;;;;4.30;2.15;;;17.20;66.50;;;;;;10556303;28;20118;-58
2021/12/05 21:44:50;;;;;;;3.38;2.15;;;17.10;66.50;;;;;;10580391;28;20515;-57
2021/12/05 21:49:51;;;;;;;4.10;2.50;;;17.10;66.60;;;;;;10565604;28;20024;-57
2021/12/05 21:54:51;;;;;;;5.60;2.88;;;17.00;66.60;;;;;;10565660;28;20087;-57
2021/12/05 21:59:52;;;;;;;9.20;2.90;;;17.00;66.60;;;;;;10551963;28;20031;-58
2021/12/05 22:04:53;;;;;;;3.65;2.30;;;16.90;66.50;;;;;;10583410;28;20080;-58
2021/12/05 22:09:54;;;;;;;4.97;2.50;;;16.90;66.60;;;;;;10583356;28;20077;-56
2021/12/05 22:14:55;;;;;;;6.70;3.08;;;16.80;66.50;;;;;;10583065;28;20034;-57
2021/12/05 22:19:58;;;;;;;3.72;2.53;;;16.80;66.60;;;;;;10582818;28;20366;-57
2021/12/05 22:25:00;;;;;;;5.72;2.67;;;16.80;66.50;;;;;;10547162;28;20031;-58
2021/12/05 22:30:01;;;;;;;4.32;2.78;;;16.70;66.50;;;;;;10582234;28;20383;-58
2021/12/05 22:35:02;;;;;;;3.97;2.40;;;16.70;66.60;;;;;;10582445;28;20119;-57
2021/12/05 22:40:04;;;;;;;4.07;2.28;;;16.60;66.60;;;;;;10563747;28;20533;-57
2021/12/05 22:45:07;;;;;;;3.85;2.78;;;16.60;67.30;;;;;;10563457;28;20056;-57
2021/12/05 22:50:09;;;;;;;4.13;2.78;;;16.60;66.70;;;;;;10563578;28;20028;-57
2021/12/05 22:55:11;;;;;;;2.88;2.20;;;16.60;66.70;;;;;;10563653;28;20118;-57
2021/12/05 23:00:54;;;;;;;3.75;2.58;;;16.60;66.70;;;;;;10563289;28;20046;-55
2021/12/05 23:05:55;;;;;;;4.00;2.50;;;16.50;66.70;;;;;;10581326;28;20023;-56
2021/12/05 23:10:57;;;;;;;5.40;2.95;;;16.50;66.70;;;;;;10562865;28;20027;-56
2021/12/05 23:15:58;;;;;;;3.53;2.33;;;16.40;66.70;;;;;;10545784;28;20020;-56
2021/12/05 23:21:00;;;;;;;4.97;2.30;;;16.40;67.30;;;;;;10545035;28;20031;-57
2021/12/05 23:26:02;;;;;;;5.40;2.38;;;16.40;66.70;;;;;;10580542;28;20032;-55
2021/12/05 23:31:03;;;;;;;4.32;2.85;;;16.40;66.80;;;;;;10545002;28;20035;-57
2021/12/05 23:36:05;;;;;;;3.63;2.30;;;16.30;66.70;;;;;;10558954;28;20435;-57
2021/12/05 23:41:06;;;;;;;3.75;2.70;;;16.30;66.80;;;;;;10547846;28;20024;-57
2021/12/05 23:46:07;;;;;;;4.38;2.50;;;16.30;66.80;;;;;;10561782;28;20415;-56
2021/12/05 23:51:09;;;;;;;2.65;2.20;;;16.30;66.80;;;;;;10560465;28;20039;-57
2021/12/05 23:56:10;;;;;;;4.93;2.42;;;16.20;66.80;;;;;;10555572;28;20490;-57
